sensor_id;sensor_type;location;lat;lon;timestamp;P1;durP1;ratioP1;P2;durP2;ratioP2
67378;SDS011;54262;44.642;-0.974;2023-04-06T00:01:49;4.82;;;4.45;;
67378;SDS011;54262;44.642;-0.974;2023-04-06T00:04:15;5.95;;;4.10;;
67378;SDS011;54262;44.642;-0.974;2023-04-06T00:06:42;5.15;;;4.75;;
67378;SDS011;54262;44.642;-0.974;2023-04-06T00:09:08;6.22;;;3.65;;
67378;SDS011;54262;44.642;-0.974;2023-04-06T00:11:34;5.90;;;3.67;;
67378;SDS011;54262;44.642;-0.974;2023-04-06T00:14:00;6.47;;;3.97;;
67378;SDS011;54262;44.642;-0.974;2023-04-06T00:16:26;9.40;;;4.20;;
67378;SDS011;54262;44.642;-0.974;2023-04-06T00:18:54;6.47;;;5.00;;
67378;SDS011;54262;44.642;-0.974;2023-04-06T00:21:20;6.07;;;5.57;;
67378;SDS011;54262;44.642;-0.974;2023-04-06T00:23:46;7.85;;;5.50;;
67378;SDS011;54262;44.642;-0.974;2023-04-06T00:26:12;7.65;;;5.63;;
67378;SDS011;54262;44.642;-0.974;2023-04-06T00:28:38;6.22;;;5.90;;
67378;SDS011;54262;44.642;-0.974;2023-04-06T00:31:04;7.93;;;5.78;;
67378;SDS011;54262;44.642;-0.974;2023-04-06T00:33:30;6.50;;;5.38;;
67378;SDS011;54262;44.642;-0.974;2023-04-06T00:35:56;7.35;;;5.10;;
67378;SDS011;54262;44.642;-0.974;2023-04-06T00:38:22;15.40;;;5.63;;
67378;SDS011;54262;44.642;-0.974;2023-04-06T00:40:49;6.20;;;5.68;;
67378;SDS011;54262;44.642;-0.974;2023-04-06T00:43:15;5.18;;;4.68;;
67378;SDS011;54262;44.642;-0.974;2023-04-06T00:45:41;4.70;;;4.35;;
67378;SDS011;54262;44.642;-0.974;2023-04-06T00:48:08;10.43;;;4.22;;
67378;SDS011;54262;44.642;-0.974;2023-04-06T00:50:34;5.82;;;3.95;;
67378;SDS011;54262;44.642;-0.974;2023-04-06T00:53:00;9.68;;;5.18;;
67378;SDS011;54262;44.642;-0.974;2023-04-06T00:55:27;6.40;;;5.95;;
67378;SDS011;54262;44.642;-0.974;2023-04-06T00:57:55;5.95;;;5.13;;
67378;SDS011;54262;44.642;-0.974;2023-04-06T01:00:22;8.30;;;5.63;;
67378;SDS011;54262;44.642;-0.974;2023-04-06T01:02:48;8.07;;;5.50;;
67378;SDS011;54262;44.642;-0.974;2023-04-06T01:05:14;7.22;;;4.97;;
67378;SDS011;54262;44.642;-0.974;2023-04-06T01:07:40;7.50;;;5.07;;
67378;SDS011;54262;44.642;-0.974;2023-04-06T01:10:07;13.02;;;5.70;;
67378;SDS011;54262;44.642;-0.974;2023-04-06T01:12:33;6.13;;;5.15;;
67378;SDS011;54262;44.642;-0.974;2023-04-06T01:14:59;6.88;;;4.88;;
67378;SDS011;54262;44.642;-0.974;2023-04-06T01:17:25;7.90;;;5.53;;
67378;SDS011;54262;44.642;-0.974;2023-04-06T01:19:53;13.90;;;5.07;;
67378;SDS011;54262;44.642;-0.974;2023-04-06T01:22:19;5.13;;;4.70;;
67378;SDS011;54262;44.642;-0.974;2023-04-06T01:24:46;11.30;;;5.32;;
67378;SDS011;54262;44.642;-0.974;2023-04-06T01:27:12;7.53;;;4.97;;
67378;SDS011;54262;44.642;-0.974;2023-04-06T01:29:39;6.32;;;4.60;;
67378;SDS011;54262;44.642;-0.974;2023-04-06T01:32:08;8.07;;;5.38;;
67378;SDS011;54262;44.642;-0.974;2023-04-06T01:34:34;9.82;;;5.25;;
67378;SDS011;54262;44.642;-0.974;2023-04-06T01:37:00;5.03;;;4.50;;
67378;SDS011;54262;44.642;-0.974;2023-04-06T01:39:26;5.45;;;4.38;;
67378;SDS011;54262;44.642;-0.974;2023-04-06T01:41:55;8.65;;;4.35;;
67378;SDS011;54262;44.642;-0.974;2023-04-06T01:44:21;5.05;;;4.53;;
67378;SDS011;54262;44.642;-0.974;2023-04-06T01:46:47;7.43;;;5.07;;
67378;SDS011;54262;44.642;-0.974;2023-04-06T01:49:13;6.72;;;4.70;;
67378;SDS011;54262;44.642;-0.974;2023-04-06T01:51:40;4.93;;;4.63;;
67378;SDS011;54262;44.642;-0.974;2023-04-06T01:54:08;5.00;;;4.63;;
67378;SDS011;54262;44.642;-0.974;2023-04-06T01:56:35;4.60;;;4.30;;
67378;SDS011;54262;44.642;-0.974;2023-04-06T01:59:03;4.60;;;4.20;;
67378;SDS011;54262;44.642;-0.974;2023-04-06T02:01:29;4.75;;;4.20;;
67378;SDS011;54262;44.642;-0.974;2023-04-06T02:03:56;4.35;;;4.10;;
67378;SDS011;54262;44.642;-0.974;2023-04-06T02:06:22;5.05;;;4.60;;
67378;SDS011;54262;44.642;-0.974;2023-04-06T02:08:48;4.50;;;4.20;;
67378;SDS011;54262;44.642;-0.974;2023-04-06T02:11:14;5.88;;;5.22;;
67378;SDS011;54262;44.642;-0.974;2023-04-06T02:13:40;4.78;;;4.47;;
67378;SDS011;54262;44.642;-0.974;2023-04-06T02:16:06;5.38;;;4.88;;
67378;SDS011;54262;44.642;-0.974;2023-04-06T02:18:32;4.05;;;3.85;;
67378;SDS011;54262;44.642;-0.974;2023-04-06T02:21:00;3.78;;;3.55;;
67378;SDS011;54262;44.642;-0.974;2023-04-06T02:23:27;5.65;;;4.75;;
67378;SDS011;54262;44.642;-0.974;2023-04-06T02:25:53;6.65;;;5.40;;
67378;SDS011;54262;44.642;-0.974;2023-04-06T02:28:19;6.13;;;5.82;;
67378;SDS011;54262;44.642;-0.974;2023-04-06T02:30:45;8.95;;;5.85;;
67378;SDS011;54262;44.642;-0.974;2023-04-06T02:33:11;7.22;;;6.80;;
67378;SDS011;54262;44.642;-0.974;2023-04-06T02:35:37;6.30;;;5.97;;
67378;SDS011;54262;44.642;-0.974;2023-04-06T02:38:03;6.63;;;6.03;;
67378;SDS011;54262;44.642;-0.974;2023-04-06T02:40:29;7.75;;;7.35;;
67378;SDS011;54262;44.642;-0.974;2023-04-06T02:42:58;6.90;;;6.30;;
67378;SDS011;54262;44.642;-0.974;2023-04-06T02:45:24;8.93;;;7.57;;
67378;SDS011;54262;44.642;-0.974;2023-04-06T02:47:51;8.65;;;7.85;;
67378;SDS011;54262;44.642;-0.974;2023-04-06T02:50:17;8.43;;;7.68;;
67378;SDS011;54262;44.642;-0.974;2023-04-06T02:52:43;7.47;;;6.90;;
67378;SDS011;54262;44.642;-0.974;2023-04-06T02:55:09;6.45;;;6.05;;
67378;SDS011;54262;44.642;-0.974;2023-04-06T02:57:35;12.98;;;7.07;;
67378;SDS011;54262;44.642;-0.974;2023-04-06T03:00:03;13.57;;;6.35;;
67378;SDS011;54262;44.642;-0.974;2023-04-06T03:02:30;10.75;;;6.80;;
67378;SDS011;54262;44.642;-0.974;2023-04-06T03:04:56;7.30;;;6.80;;
67378;SDS011;54262;44.642;-0.974;2023-04-06T03:07:22;11.65;;;6.97;;
67378;SDS011;54262;44.642;-0.974;2023-04-06T03:09:48;7.70;;;7.05;;
67378;SDS011;54262;44.642;-0.974;2023-04-06T03:12:14;8.90;;;7.93;;
67378;SDS011;54262;44.642;-0.974;2023-04-06T03:14:40;8.13;;;7.63;;
67378;SDS011;54262;44.642;-0.974;2023-04-06T03:17:06;8.50;;;7.65;;
67378;SDS011;54262;44.642;-0.974;2023-04-06T03:19:32;8.77;;;7.13;;
67378;SDS011;54262;44.642;-0.974;2023-04-06T03:22:01;7.88;;;7.15;;
67378;SDS011;54262;44.642;-0.974;2023-04-06T03:24:27;7.97;;;7.47;;
67378;SDS011;54262;44.642;-0.974;2023-04-06T03:26:53;8.02;;;7.38;;
67378;SDS011;54262;44.642;-0.974;2023-04-06T03:29:20;8.65;;;7.57;;
67378;SDS011;54262;44.642;-0.974;2023-04-06T03:31:46;8.52;;;7.75;;
67378;SDS011;54262;44.642;-0.974;2023-04-06T03:34:12;12.70;;;8.20;;
67378;SDS011;54262;44.642;-0.974;2023-04-06T03:36:41;8.07;;;7.53;;
67378;SDS011;54262;44.642;-0.974;2023-04-06T03:39:07;7.82;;;7.15;;
67378;SDS011;54262;44.642;-0.974;2023-04-06T03:41:33;7.60;;;7.15;;
67378;SDS011;54262;44.642;-0.974;2023-04-06T03:43:59;11.23;;;10.38;;
67378;SDS011;54262;44.642;-0.974;2023-04-06T03:46:25;12.45;;;8.85;;
67378;SDS011;54262;44.642;-0.974;2023-04-06T03:48:51;7.40;;;7.07;;
67378;SDS011;54262;44.642;-0.974;2023-04-06T03:51:17;9.35;;;6.53;;
67378;SDS011;54262;44.642;-0.974;2023-04-06T03:53:46;5.28;;;4.90;;
67378;SDS011;54262;44.642;-0.974;2023-04-06T03:56:12;5.00;;;4.70;;
67378;SDS011;54262;44.642;-0.974;2023-04-06T03:58:38;9.18;;;8.32;;
67378;SDS011;54262;44.642;-0.974;2023-04-06T04:01:07;10.95;;;9.00;;
67378;SDS011;54262;44.642;-0.974;2023-04-06T04:03:33;12.82;;;9.93;;
67378;SDS011;54262;44.642;-0.974;2023-04-06T04:05:59;10.65;;;9.65;;
67378;SDS011;54262;44.642;-0.974;2023-04-06T04:08:25;8.93;;;8.23;;
67378;SDS011;54262;44.642;-0.974;2023-04-06T04:10:51;7.53;;;6.93;;
67378;SDS011;54262;44.642;-0.974;2023-04-06T04:13:17;6.82;;;6.10;;
67378;SDS011;54262;44.642;-0.974;2023-04-06T04:15:43;4.55;;;4.35;;
67378;SDS011;54262;44.642;-0.974;2023-04-06T04:18:09;10.73;;;9.73;;
67378;SDS011;54262;44.642;-0.974;2023-04-06T04:20:35;10.82;;;9.90;;
67378;SDS011;54262;44.642;-0.974;2023-04-06T04:23:04;10.10;;;9.00;;
67378;SDS011;54262;44.642;-0.974;2023-04-06T04:25:30;9.82;;;9.23;;
67378;SDS011;54262;44.642;-0.974;2023-04-06T04:27:56;10.00;;;9.05;;
67378;SDS011;54262;44.642;-0.974;2023-04-06T04:30:22;13.55;;;9.60;;
67378;SDS011;54262;44.642;-0.974;2023-04-06T04:32:48;11.20;;;8.93;;
67378;SDS011;54262;44.642;-0.974;2023-04-06T04:35:14;14.63;;;10.25;;
67378;SDS011;54262;44.642;-0.974;2023-04-06T04:37:41;10.98;;;10.02;;
67378;SDS011;54262;44.642;-0.974;2023-04-06T04:40:07;14.43;;;11.32;;
67378;SDS011;54262;44.642;-0.974;2023-04-06T04:42:36;13.95;;;10.95;;
67378;SDS011;54262;44.642;-0.974;2023-04-06T04:45:02;20.45;;;10.90;;
67378;SDS011;54262;44.642;-0.974;2023-04-06T04:47:28;11.23;;;10.20;;
67378;SDS011;54262;44.642;-0.974;2023-04-06T04:49:55;12.18;;;10.73;;
67378;SDS011;54262;44.642;-0.974;2023-04-06T04:52:23;9.60;;;8.82;;
67378;SDS011;54262;44.642;-0.974;2023-04-06T04:54:50;11.60;;;9.63;;
67378;SDS011;54262;44.642;-0.974;2023-04-06T04:57:16;25.40;;;12.38;;
67378;SDS011;54262;44.642;-0.974;2023-04-06T04:59:45;13.38;;;12.13;;
67378;SDS011;54262;44.642;-0.974;2023-04-06T05:02:13;15.07;;;11.95;;
67378;SDS011;54262;44.642;-0.974;2023-04-06T05:04:39;13.85;;;12.50;;
67378;SDS011;54262;44.642;-0.974;2023-04-06T05:07:06;20.75;;;12.23;;
67378;SDS011;54262;44.642;-0.974;2023-04-06T05:09:32;12.25;;;10.60;;
67378;SDS011;54262;44.642;-0.974;2023-04-06T05:11:59;9.27;;;8.48;;
67378;SDS011;54262;44.642;-0.974;2023-04-06T05:14:25;10.30;;;8.48;;
67378;SDS011;54262;44.642;-0.974;2023-04-06T05:16:51;8.52;;;7.72;;
67378;SDS011;54262;44.642;-0.974;2023-04-06T05:19:17;10.32;;;7.65;;
67378;SDS011;54262;44.642;-0.974;2023-04-06T05:21:44;8.02;;;7.32;;
67378;SDS011;54262;44.642;-0.974;2023-04-06T05:24:12;8.55;;;7.85;;
67378;SDS011;54262;44.642;-0.974;2023-04-06T05:26:38;11.02;;;9.80;;
67378;SDS011;54262;44.642;-0.974;2023-04-06T05:29:05;8.32;;;7.50;;
67378;SDS011;54262;44.642;-0.974;2023-04-06T05:31:31;8.25;;;7.57;;
67378;SDS011;54262;44.642;-0.974;2023-04-06T05:33:57;9.73;;;8.82;;
67378;SDS011;54262;44.642;-0.974;2023-04-06T05:36:23;7.80;;;7.05;;
67378;SDS011;54262;44.642;-0.974;2023-04-06T05:38:49;12.00;;;8.30;;
67378;SDS011;54262;44.642;-0.974;2023-04-06T05:41:17;10.45;;;9.38;;
67378;SDS011;54262;44.642;-0.974;2023-04-06T05:43:43;12.05;;;8.25;;
67378;SDS011;54262;44.642;-0.974;2023-04-06T05:46:10;14.38;;;8.27;;
67378;SDS011;54262;44.642;-0.974;2023-04-06T05:48:36;11.32;;;7.95;;
67378;SDS011;54262;44.642;-0.974;2023-04-06T05:51:03;10.85;;;8.15;;
67378;SDS011;54262;44.642;-0.974;2023-04-06T05:53:31;10.27;;;8.00;;
67378;SDS011;54262;44.642;-0.974;2023-04-06T05:56:00;8.45;;;7.78;;
67378;SDS011;54262;44.642;-0.974;2023-04-06T05:58:26;8.90;;;8.00;;
67378;SDS011;54262;44.642;-0.974;2023-04-06T06:00:59;8.43;;;7.82;;
67378;SDS011;54262;44.642;-0.974;2023-04-06T06:03:27;12.55;;;8.57;;
67378;SDS011;54262;44.642;-0.974;2023-04-06T06:05:58;9.82;;;9.02;;
67378;SDS011;54262;44.642;-0.974;2023-04-06T06:08:25;9.80;;;8.00;;
67378;SDS011;54262;44.642;-0.974;2023-04-06T06:10:51;12.32;;;8.32;;
67378;SDS011;54262;44.642;-0.974;2023-04-06T06:13:18;9.02;;;8.25;;
67378;SDS011;54262;44.642;-0.974;2023-04-06T06:15:44;12.82;;;8.02;;
67378;SDS011;54262;44.642;-0.974;2023-04-06T06:18:10;16.38;;;6.78;;
67378;SDS011;54262;44.642;-0.974;2023-04-06T06:20:36;13.57;;;8.07;;
67378;SDS011;54262;44.642;-0.974;2023-04-06T06:23:02;15.48;;;7.40;;
67378;SDS011;54262;44.642;-0.974;2023-04-06T06:25:31;8.25;;;7.55;;
67378;SDS011;54262;44.642;-0.974;2023-04-06T06:27:57;8.57;;;7.97;;
67378;SDS011;54262;44.642;-0.974;2023-04-06T06:30:23;9.13;;;7.35;;
67378;SDS011;54262;44.642;-0.974;2023-04-06T06:32:49;8.70;;;8.07;;
67378;SDS011;54262;44.642;-0.974;2023-04-06T06:35:19;11.57;;;7.65;;
67378;SDS011;54262;44.642;-0.974;2023-04-06T06:37:45;8.73;;;7.72;;
67378;SDS011;54262;44.642;-0.974;2023-04-06T06:40:11;8.30;;;7.20;;
67378;SDS011;54262;44.642;-0.974;2023-04-06T06:42:42;9.55;;;7.90;;
67378;SDS011;54262;44.642;-0.974;2023-04-06T06:45:08;10.02;;;9.07;;
67378;SDS011;54262;44.642;-0.974;2023-04-06T06:47:34;10.25;;;8.75;;
67378;SDS011;54262;44.642;-0.974;2023-04-06T06:50:01;9.30;;;8.32;;
67378;SDS011;54262;44.642;-0.974;2023-04-06T06:52:28;10.43;;;8.07;;
67378;SDS011;54262;44.642;-0.974;2023-04-06T06:54:54;9.43;;;8.57;;
67378;SDS011;54262;44.642;-0.974;2023-04-06T06:57:21;11.63;;;9.02;;
67378;SDS011;54262;44.642;-0.974;2023-04-06T06:59:47;10.95;;;8.73;;
67378;SDS011;54262;44.642;-0.974;2023-04-06T07:02:13;9.60;;;8.70;;
67378;SDS011;54262;44.642;-0.974;2023-04-06T07:04:41;9.45;;;7.80;;
67378;SDS011;54262;44.642;-0.974;2023-04-06T07:07:07;8.30;;;6.88;;
67378;SDS011;54262;44.642;-0.974;2023-04-06T07:09:34;9.52;;;7.72;;
67378;SDS011;54262;44.642;-0.974;2023-04-06T07:12:00;10.98;;;9.10;;
67378;SDS011;54262;44.642;-0.974;2023-04-06T07:14:27;15.80;;;8.88;;
67378;SDS011;54262;44.642;-0.974;2023-04-06T07:16:53;10.00;;;8.40;;
67378;SDS011;54262;44.642;-0.974;2023-04-06T07:19:19;8.93;;;8.32;;
67378;SDS011;54262;44.642;-0.974;2023-04-06T07:21:45;9.80;;;8.80;;
67378;SDS011;54262;44.642;-0.974;2023-04-06T07:24:11;11.25;;;8.90;;
67378;SDS011;54262;44.642;-0.974;2023-04-06T07:26:39;9.07;;;8.27;;
67378;SDS011;54262;44.642;-0.974;2023-04-06T07:29:05;9.30;;;8.45;;
67378;SDS011;54262;44.642;-0.974;2023-04-06T07:31:35;8.73;;;8.13;;
67378;SDS011;54262;44.642;-0.974;2023-04-06T07:34:01;11.57;;;9.25;;
67378;SDS011;54262;44.642;-0.974;2023-04-06T07:36:27;13.73;;;8.48;;
67378;SDS011;54262;44.642;-0.974;2023-04-06T07:38:53;8.27;;;7.68;;
67378;SDS011;54262;44.642;-0.974;2023-04-06T07:41:19;8.25;;;7.68;;
67378;SDS011;54262;44.642;-0.974;2023-04-06T07:43:46;8.20;;;7.68;;
67378;SDS011;54262;44.642;-0.974;2023-04-06T07:46:12;8.15;;;7.43;;
67378;SDS011;54262;44.642;-0.974;2023-04-06T07:48:38;9.65;;;8.18;;
67378;SDS011;54262;44.642;-0.974;2023-04-06T07:51:04;11.85;;;8.82;;
67378;SDS011;54262;44.642;-0.974;2023-04-06T07:53:31;8.30;;;7.80;;
67378;SDS011;54262;44.642;-0.974;2023-04-06T07:55:58;15.48;;;10.27;;
67378;SDS011;54262;44.642;-0.974;2023-04-06T07:58:24;26.60;;;10.40;;
67378;SDS011;54262;44.642;-0.974;2023-04-06T08:00:51;15.48;;;7.93;;
67378;SDS011;54262;44.642;-0.974;2023-04-06T08:03:17;23.70;;;8.18;;
67378;SDS011;54262;44.642;-0.974;2023-04-06T08:05:47;8.15;;;7.35;;
67378;SDS011;54262;44.642;-0.974;2023-04-06T08:08:13;11.40;;;7.20;;
67378;SDS011;54262;44.642;-0.974;2023-04-06T08:10:40;8.20;;;7.40;;
67378;SDS011;54262;44.642;-0.974;2023-04-06T08:13:06;8.43;;;7.50;;
67378;SDS011;54262;44.642;-0.974;2023-04-06T08:15:33;18.98;;;7.70;;
67378;SDS011;54262;44.642;-0.974;2023-04-06T08:17:59;12.65;;;7.85;;
67378;SDS011;54262;44.642;-0.974;2023-04-06T08:20:28;8.10;;;7.35;;
67378;SDS011;54262;44.642;-0.974;2023-04-06T08:22:54;13.68;;;7.90;;
67378;SDS011;54262;44.642;-0.974;2023-04-06T08:25:20;15.05;;;9.00;;
67378;SDS011;54262;44.642;-0.974;2023-04-06T08:27:48;19.65;;;9.02;;
67378;SDS011;54262;44.642;-0.974;2023-04-06T08:30:14;13.43;;;8.90;;
67378;SDS011;54262;44.642;-0.974;2023-04-06T08:32:41;10.73;;;9.95;;
67378;SDS011;54262;44.642;-0.974;2023-04-06T08:35:07;8.65;;;7.88;;
67378;SDS011;54262;44.642;-0.974;2023-04-06T08:37:34;10.95;;;7.78;;
67378;SDS011;54262;44.642;-0.974;2023-04-06T08:40:02;15.30;;;7.75;;
67378;SDS011;54262;44.642;-0.974;2023-04-06T08:42:28;11.85;;;7.80;;
67378;SDS011;54262;44.642;-0.974;2023-04-06T08:44:57;9.48;;;8.65;;
67378;SDS011;54262;44.642;-0.974;2023-04-06T08:47:23;18.90;;;9.43;;
67378;SDS011;54262;44.642;-0.974;2023-04-06T08:49:49;35.65;;;10.68;;
67378;SDS011;54262;44.642;-0.974;2023-04-06T08:52:19;24.00;;;10.88;;
67378;SDS011;54262;44.642;-0.974;2023-04-06T08:54:45;30.83;;;12.40;;
67378;SDS011;54262;44.642;-0.974;2023-04-06T08:57:11;3.75;;;3.45;;
67378;SDS011;54262;44.642;-0.974;2023-04-06T08:59:38;24.77;;;13.38;;
67378;SDS011;54262;44.642;-0.974;2023-04-06T09:02:04;33.70;;;16.42;;
67378;SDS011;54262;44.642;-0.974;2023-04-06T09:04:34;37.95;;;16.10;;
67378;SDS011;54262;44.642;-0.974;2023-04-06T09:07:06;23.23;;;11.40;;
67378;SDS011;54262;44.642;-0.974;2023-04-06T09:09:32;16.65;;;8.55;;
67378;SDS011;54262;44.642;-0.974;2023-04-06T09:11:58;7.97;;;7.40;;
67378;SDS011;54262;44.642;-0.974;2023-04-06T09:14:37;8.25;;;7.53;;
67378;SDS011;54262;44.642;-0.974;2023-04-06T09:17:03;5.00;;;4.47;;
67378;SDS011;54262;44.642;-0.974;2023-04-06T09:19:29;7.60;;;4.63;;
67378;SDS011;54262;44.642;-0.974;2023-04-06T09:22:05;11.55;;;7.50;;
67378;SDS011;54262;44.642;-0.974;2023-04-06T09:24:41;5.57;;;4.45;;
67378;SDS011;54262;44.642;-0.974;2023-04-06T09:27:08;4.65;;;4.35;;
67378;SDS011;54262;44.642;-0.974;2023-04-06T09:29:37;3.58;;;3.28;;
67378;SDS011;54262;44.642;-0.974;2023-04-06T09:32:03;4.10;;;3.80;;
67378;SDS011;54262;44.642;-0.974;2023-04-06T09:34:30;4.70;;;3.10;;
67378;SDS011;54262;44.642;-0.974;2023-04-06T09:36:56;3.55;;;2.80;;
67378;SDS011;54262;44.642;-0.974;2023-04-06T09:39:23;2.97;;;2.78;;
67378;SDS011;54262;44.642;-0.974;2023-04-06T09:41:50;4.97;;;3.20;;
67378;SDS011;54262;44.642;-0.974;2023-04-06T09:44:16;3.30;;;3.00;;
67378;SDS011;54262;44.642;-0.974;2023-04-06T09:46:43;5.22;;;3.90;;
67378;SDS011;54262;44.642;-0.974;2023-04-06T09:49:10;3.00;;;2.78;;
67378;SDS011;54262;44.642;-0.974;2023-04-06T09:51:37;5.60;;;3.38;;
67378;SDS011;54262;44.642;-0.974;2023-04-06T09:54:03;4.13;;;2.53;;
67378;SDS011;54262;44.642;-0.974;2023-04-06T09:56:51;3.30;;;3.08;;
67378;SDS011;54262;44.642;-0.974;2023-04-06T09:59:21;2.92;;;2.67;;
67378;SDS011;54262;44.642;-0.974;2023-04-06T10:01:50;4.80;;;3.15;;
67378;SDS011;54262;44.642;-0.974;2023-04-06T10:07:01;3.92;;;2.75;;
67378;SDS011;54262;44.642;-0.974;2023-04-06T10:09:30;2.97;;;2.78;;
67378;SDS011;54262;44.642;-0.974;2023-04-06T10:12:02;3.55;;;3.33;;
67378;SDS011;54262;44.642;-0.974;2023-04-06T10:14:28;10.20;;;2.67;;
67378;SDS011;54262;44.642;-0.974;2023-04-06T10:16:55;4.40;;;2.80;;
67378;SDS011;54262;44.642;-0.974;2023-04-06T10:19:24;3.60;;;2.42;;
67378;SDS011;54262;44.642;-0.974;2023-04-06T10:21:53;2.92;;;2.75;;
67378;SDS011;54262;44.642;-0.974;2023-04-06T10:24:20;3.80;;;2.97;;
67378;SDS011;54262;44.642;-0.974;2023-04-06T10:27:08;4.35;;;4.07;;
67378;SDS011;54262;44.642;-0.974;2023-04-06T10:29:42;3.00;;;2.85;;
67378;SDS011;54262;44.642;-0.974;2023-04-06T10:32:14;6.38;;;3.33;;
67378;SDS011;54262;44.642;-0.974;2023-04-06T10:34:40;2.65;;;2.55;;
67378;SDS011;54262;44.642;-0.974;2023-04-06T10:37:13;3.83;;;3.63;;
67378;SDS011;54262;44.642;-0.974;2023-04-06T10:39:51;4.00;;;3.33;;
67378;SDS011;54262;44.642;-0.974;2023-04-06T10:42:35;2.58;;;2.35;;
67378;SDS011;54262;44.642;-0.974;2023-04-06T10:45:04;2.95;;;2.60;;
67378;SDS011;54262;44.642;-0.974;2023-04-06T10:47:38;3.13;;;2.88;;
67378;SDS011;54262;44.642;-0.974;2023-04-06T10:50:04;2.20;;;2.10;;
67378;SDS011;54262;44.642;-0.974;2023-04-06T10:52:31;2.10;;;1.90;;
67378;SDS011;54262;44.642;-0.974;2023-04-06T10:54:57;3.28;;;2.97;;
67378;SDS011;54262;44.642;-0.974;2023-04-06T10:57:29;2.92;;;2.72;;
67378;SDS011;54262;44.642;-0.974;2023-04-06T10:59:58;2.78;;;2.58;;
67378;SDS011;54262;44.642;-0.974;2023-04-06T11:02:24;3.90;;;2.47;;
67378;SDS011;54262;44.642;-0.974;2023-04-06T11:04:57;2.47;;;1.73;;
67378;SDS011;54262;44.642;-0.974;2023-04-06T11:07:27;1.95;;;1.85;;
67378;SDS011;54262;44.642;-0.974;2023-04-06T11:10:00;2.10;;;1.90;;
67378;SDS011;54262;44.642;-0.974;2023-04-06T11:12:27;1.85;;;1.67;;
67378;SDS011;54262;44.642;-0.974;2023-04-06T11:17:30;2.67;;;2.28;;
67378;SDS011;54262;44.642;-0.974;2023-04-06T11:19:57;3.05;;;1.80;;
67378;SDS011;54262;44.642;-0.974;2023-04-06T11:22:23;3.38;;;1.75;;
67378;SDS011;54262;44.642;-0.974;2023-04-06T11:24:49;1.77;;;1.42;;
67378;SDS011;54262;44.642;-0.974;2023-04-06T11:27:16;1.63;;;1.30;;
67378;SDS011;54262;44.642;-0.974;2023-04-06T11:29:45;2.17;;;0.80;;
67378;SDS011;54262;44.642;-0.974;2023-04-06T11:32:21;1.13;;;0.90;;
67378;SDS011;54262;44.642;-0.974;2023-04-06T11:34:49;4.72;;;1.25;;
67378;SDS011;54262;44.642;-0.974;2023-04-06T11:37:15;2.22;;;1.50;;
67378;SDS011;54262;44.642;-0.974;2023-04-06T11:39:51;1.30;;;1.00;;
67378;SDS011;54262;44.642;-0.974;2023-04-06T11:42:24;1.38;;;1.27;;
67378;SDS011;54262;44.642;-0.974;2023-04-06T11:44:51;3.70;;;1.25;;
67378;SDS011;54262;44.642;-0.974;2023-04-06T11:47:18;3.40;;;1.30;;
67378;SDS011;54262;44.642;-0.974;2023-04-06T11:49:47;1.23;;;1.13;;
67378;SDS011;54262;44.642;-0.974;2023-04-06T11:52:15;1.38;;;1.10;;
67378;SDS011;54262;44.642;-0.974;2023-04-06T11:54:42;2.75;;;1.20;;
67378;SDS011;54262;44.642;-0.974;2023-04-06T11:57:08;3.70;;;1.40;;
67378;SDS011;54262;44.642;-0.974;2023-04-06T11:59:35;1.85;;;1.75;;
67378;SDS011;54262;44.642;-0.974;2023-04-06T12:02:01;1.73;;;1.35;;
67378;SDS011;54262;44.642;-0.974;2023-04-06T12:04:28;4.15;;;1.20;;
67378;SDS011;54262;44.642;-0.974;2023-04-06T12:06:54;3.80;;;1.10;;
67378;SDS011;54262;44.642;-0.974;2023-04-06T12:09:20;1.17;;;1.08;;
67378;SDS011;54262;44.642;-0.974;2023-04-06T12:11:48;4.28;;;1.33;;
67378;SDS011;54262;44.642;-0.974;2023-04-06T12:14:15;8.30;;;1.35;;
67378;SDS011;54262;44.642;-0.974;2023-04-06T12:16:41;1.83;;;1.20;;
67378;SDS011;54262;44.642;-0.974;2023-04-06T12:19:07;1.23;;;1.08;;
67378;SDS011;54262;44.642;-0.974;2023-04-06T12:21:36;1.52;;;0.80;;
67378;SDS011;54262;44.642;-0.974;2023-04-06T12:24:02;1.15;;;0.93;;
67378;SDS011;54262;44.642;-0.974;2023-04-06T12:26:29;6.30;;;0.90;;
67378;SDS011;54262;44.642;-0.974;2023-04-06T12:28:55;2.00;;;0.98;;
67378;SDS011;54262;44.642;-0.974;2023-04-06T12:31:21;6.30;;;1.10;;
67378;SDS011;54262;44.642;-0.974;2023-04-06T12:33:51;1.45;;;1.20;;
67378;SDS011;54262;44.642;-0.974;2023-04-06T12:36:18;4.30;;;1.17;;
67378;SDS011;54262;44.642;-0.974;2023-04-06T12:38:46;1.67;;;1.58;;
67378;SDS011;54262;44.642;-0.974;2023-04-06T12:41:12;1.20;;;1.10;;
67378;SDS011;54262;44.642;-0.974;2023-04-06T12:43:39;2.70;;;1.08;;
67378;SDS011;54262;44.642;-0.974;2023-04-06T12:46:05;2.60;;;1.60;;
67378;SDS011;54262;44.642;-0.974;2023-04-06T12:48:31;2.33;;;1.60;;
67378;SDS011;54262;44.642;-0.974;2023-04-06T12:50:58;1.83;;;1.70;;
67378;SDS011;54262;44.642;-0.974;2023-04-06T12:53:24;1.38;;;1.20;;
67378;SDS011;54262;44.642;-0.974;2023-04-06T12:55:51;1.52;;;1.30;;
67378;SDS011;54262;44.642;-0.974;2023-04-06T12:58:17;3.63;;;2.35;;
67378;SDS011;54262;44.642;-0.974;2023-04-06T13:00:43;5.60;;;4.90;;
67378;SDS011;54262;44.642;-0.974;2023-04-06T13:03:09;3.70;;;3.38;;
67378;SDS011;54262;44.642;-0.974;2023-04-06T13:05:35;2.35;;;2.15;;
67378;SDS011;54262;44.642;-0.974;2023-04-06T13:08:01;1.63;;;1.52;;
67378;SDS011;54262;44.642;-0.974;2023-04-06T13:10:27;2.38;;;1.63;;
67378;SDS011;54262;44.642;-0.974;2023-04-06T13:12:56;6.50;;;3.83;;
67378;SDS011;54262;44.642;-0.974;2023-04-06T13:15:22;2.10;;;1.48;;
67378;SDS011;54262;44.642;-0.974;2023-04-06T13:17:48;2.47;;;1.58;;
67378;SDS011;54262;44.642;-0.974;2023-04-06T13:20:14;1.52;;;1.30;;
67378;SDS011;54262;44.642;-0.974;2023-04-06T13:22:40;1.75;;;1.35;;
67378;SDS011;54262;44.642;-0.974;2023-04-06T13:25:06;9.05;;;1.42;;
67378;SDS011;54262;44.642;-0.974;2023-04-06T13:27:33;12.10;;;2.08;;
67378;SDS011;54262;44.642;-0.974;2023-04-06T13:30:00;2.65;;;1.50;;
67378;SDS011;54262;44.642;-0.974;2023-04-06T13:32:27;3.70;;;1.33;;
67378;SDS011;54262;44.642;-0.974;2023-04-06T13:34:55;6.68;;;1.70;;
67378;SDS011;54262;44.642;-0.974;2023-04-06T13:37:22;5.03;;;1.67;;
67378;SDS011;54262;44.642;-0.974;2023-04-06T13:39:48;2.15;;;1.42;;
67378;SDS011;54262;44.642;-0.974;2023-04-06T13:42:14;3.67;;;1.35;;
67378;SDS011;54262;44.642;-0.974;2023-04-06T13:44:40;1.42;;;1.25;;
67378;SDS011;54262;44.642;-0.974;2023-04-06T13:47:06;1.10;;;0.88;;
67378;SDS011;54262;44.642;-0.974;2023-04-06T13:49:32;1.38;;;1.25;;
67378;SDS011;54262;44.642;-0.974;2023-04-06T13:51:58;8.20;;;3.78;;
67378;SDS011;54262;44.642;-0.974;2023-04-06T13:54:26;2.42;;;2.22;;
67378;SDS011;54262;44.642;-0.974;2023-04-06T13:56:53;1.70;;;1.27;;
67378;SDS011;54262;44.642;-0.974;2023-04-06T13:59:19;3.20;;;1.10;;
67378;SDS011;54262;44.642;-0.974;2023-04-06T14:01:47;3.28;;;1.30;;
67378;SDS011;54262;44.642;-0.974;2023-04-06T14:04:13;2.05;;;1.30;;
67378;SDS011;54262;44.642;-0.974;2023-04-06T14:06:39;2.75;;;1.50;;
67378;SDS011;54262;44.642;-0.974;2023-04-06T14:09:05;1.35;;;1.17;;
67378;SDS011;54262;44.642;-0.974;2023-04-06T14:11:31;1.60;;;0.90;;
67378;SDS011;54262;44.642;-0.974;2023-04-06T14:14:00;3.13;;;1.25;;
67378;SDS011;54262;44.642;-0.974;2023-04-06T14:16:26;1.35;;;1.25;;
67378;SDS011;54262;44.642;-0.974;2023-04-06T14:18:52;2.50;;;1.50;;
67378;SDS011;54262;44.642;-0.974;2023-04-06T14:21:20;2.58;;;0.85;;
67378;SDS011;54262;44.642;-0.974;2023-04-06T14:23:46;1.65;;;1.13;;
67378;SDS011;54262;44.642;-0.974;2023-04-06T14:26:12;2.25;;;0.90;;
67378;SDS011;54262;44.642;-0.974;2023-04-06T14:28:38;1.23;;;0.95;;
67378;SDS011;54262;44.642;-0.974;2023-04-06T14:31:12;1.55;;;1.45;;
67378;SDS011;54262;44.642;-0.974;2023-04-06T14:33:38;1.02;;;0.80;;
67378;SDS011;54262;44.642;-0.974;2023-04-06T14:36:07;2.47;;;0.95;;